Time;durP1;ratioP1;P1;durP2;ratioP2;P2;SDS_P1;SDS_P2;PMS_P1;PMS_P2;Temp;Humidity;BMP_temperature;BMP_pressure;BME280_temperature;BME280_humidity;BME280_pressure;Samples;Min_cycle;Max_cycle;Signal;HPM_P1;HPM_P2
2022/02/16 00:02:52;;;;;;;46.03;25.77;;;;;;;5.67;92.03;99958.45;3556750;82;99227;-87
2022/02/16 00:07:53;;;;;;;53.97;27.03;;;;;;;5.63;92.38;99946.64;3538047;82;99101;-87
2022/02/16 00:12:54;;;;;;;46.27;26.30;;;;;;;5.57;92.59;99954.89;3547791;82;98866;-88
2022/02/16 00:17:55;;;;;;;47.67;27.10;;;;;;;5.52;92.83;99948.34;3532361;82;99026;-86
2022/02/16 00:22:56;;;;;;;49.23;24.57;;;;;;;5.46;92.84;99939.44;3554685;82;26093;-85
2022/02/16 00:27:56;;;;;;;44.20;25.03;;;;;;;5.41;93.06;99944.58;3545391;82;98977;-87
2022/02/16 00:32:58;;;;;;;47.33;27.60;;;;;;;5.36;93.34;99944.06;3558764;82;99072;-86
2022/02/16 00:37:58;;;;;;;47.70;25.23;;;;;;;5.32;93.71;99945.91;3486200;80;98996;-87
2022/02/16 00:42:59;;;;;;;46.53;26.30;;;;;;;5.26;93.94;99939.95;3568726;81;99114;-87
2022/02/16 00:48:00;;;;;;;45.63;25.53;;;;;;;5.20;94.26;99939.19;3561582;81;99058;-87
2022/02/16 00:53:01;;;;;;;45.53;25.37;;;;;;;5.17;94.61;99934.42;3578622;81;33115;-86
2022/02/16 00:58:05;;;;;;;44.03;25.40;;;;;;;5.12;94.66;99925.95;3581089;81;98872;-87
2022/02/16 01:03:06;;;;;;;42.95;24.00;;;;;;;5.08;94.86;99922.92;3553875;82;98821;-89
2022/02/16 01:08:09;;;;;;;47.70;25.60;;;;;;;5.03;94.97;99909.55;3547684;82;99111;-90
2022/02/16 01:13:10;;;;;;;44.90;24.67;;;;;;;4.98;95.15;99905.16;3511241;82;99063;-86
2022/02/16 01:18:11;;;;;;;45.03;25.07;;;;;;;4.94;95.34;99900.75;3535817;82;99033;-86
2022/02/16 01:23:13;;;;;;;44.93;24.37;;;;;;;4.90;95.68;99899.30;3547459;82;32995;-87
2022/02/16 01:28:14;;;;;;;43.10;23.90;;;;;;;4.85;95.72;99882.44;3539368;82;98967;-86
2022/02/16 01:33:15;;;;;;;45.47;23.43;;;;;;;4.80;95.74;99867.11;3547094;82;98876;-86
2022/02/16 01:38:16;;;;;;;46.15;25.23;;;;;;;4.76;95.86;99866.81;3531279;82;99057;-87
2022/02/16 01:43:17;;;;;;;42.60;23.80;;;;;;;4.73;96.22;99863.41;3545317;82;98956;-87
2022/02/16 01:48:18;;;;;;;40.70;23.07;;;;;;;4.68;96.20;99859.02;3541885;82;98997;-86
2022/02/16 01:53:19;;;;;;;39.67;21.60;;;;;;;4.66;96.13;99859.16;3541233;82;32998;-86
2022/02/16 01:58:20;;;;;;;35.33;20.70;;;;;;;4.62;96.02;99852.26;3541327;82;98891;-88
2022/02/16 02:03:20;;;;;;;39.50;19.57;;;;;;;4.59;96.61;99846.13;3547277;82;98813;-86
2022/02/16 02:08:24;;;;;;;37.42;20.05;;;;;;;4.57;96.20;99836.72;3535405;81;99223;-86
2022/02/16 02:13:25;;;;;;;37.63;19.98;;;;;;;4.56;96.01;99826.41;3540467;82;99223;-89
2022/02/16 02:18:26;;;;;;;31.60;17.90;;;;;;;4.54;96.52;99822.45;3537919;82;99012;-88
2022/02/16 02:23:27;;;;;;;32.67;17.77;;;;;;;4.53;96.20;99803.95;3542245;82;32069;-87
2022/02/16 02:28:28;;;;;;;32.90;18.03;;;;;;;4.51;96.12;99787.16;3537775;82;98895;-86
2022/02/16 02:33:29;;;;;;;28.23;15.80;;;;;;;4.50;95.96;99786.95;3535970;82;97639;-87
2022/02/16 02:38:30;;;;;;;28.97;16.03;;;;;;;4.52;95.62;99775.68;3536879;82;99153;-92
2022/02/16 02:43:32;;;;;;;27.73;15.90;;;;;;;4.50;95.43;99774.69;3540261;82;98990;-88
2022/02/16 02:48:33;;;;;;;24.80;15.17;;;;;;;4.49;95.10;99751.32;3512541;81;98942;-88
2022/02/16 02:53:34;;;;;;;27.10;13.73;;;;;;;4.50;94.72;99752.09;3544069;82;31585;-87
2022/02/16 02:58:36;;;;;;;24.07;11.97;;;;;;;4.49;94.30;99745.88;3537058;81;98756;-88
2022/02/16 03:03:37;;;;;;;22.90;11.70;;;;;;;4.48;93.95;99733.36;3547616;82;98926;-87
2022/02/16 03:08:38;;;;;;;22.90;11.33;;;;;;;4.48;93.56;99724.42;3535557;82;98965;-87
2022/02/16 03:13:39;;;;;;;21.43;11.13;;;;;;;4.49;93.20;99720.55;3506107;83;99070;-87
2022/02/16 03:18:41;;;;;;;20.77;11.03;;;;;;;4.47;92.95;99722.25;3529644;82;98922;-86
2022/02/16 03:23:42;;;;;;;20.55;10.60;;;;;;;4.48;92.71;99701.27;3484393;83;98983;-88
2022/02/16 03:28:43;;;;;;;20.67;11.17;;;;;;;4.51;92.44;99686.36;3511287;82;98907;-86
2022/02/16 03:33:45;;;;;;;22.47;10.77;;;;;;;4.53;92.26;99676.47;3494998;82;99259;-87
2022/02/16 03:38:46;;;;;;;19.83;11.07;;;;;;;4.54;92.08;99672.59;3483174;83;99204;-88
2022/02/16 03:43:47;;;;;;;20.00;11.00;;;;;;;4.56;91.81;99668.38;3489435;82;99367;-87
2022/02/16 03:48:47;;;;;;;20.92;11.10;;;;;;;4.60;91.68;99661.08;3498571;82;99258;-89
2022/02/16 03:53:48;;;;;;;20.33;11.50;;;;;;;4.65;91.42;99657.27;3473847;84;100648;-90
2022/02/16 03:58:49;;;;;;;21.52;11.48;;;;;;;4.72;91.30;99660.95;3463734;82;99073;-89
2022/02/16 04:03:50;;;;;;;26.87;11.80;;;;;;;4.77;91.44;99655.78;3528221;82;98924;-89
2022/02/16 04:08:51;;;;;;;21.43;12.73;;;;;;;4.79;91.53;99660.29;3498168;83;99198;-89
2022/02/16 04:13:54;;;;;;;19.00;10.28;;;;;;;4.80;91.56;99652.35;3544890;82;98981;-88
2022/02/16 04:18:54;;;;;;;17.55;10.38;;;;;;;4.82;91.37;99645.96;3539062;82;98908;-88
2022/02/16 04:23:55;;;;;;;17.87;10.73;;;;;;;4.83;91.05;99648.34;3541119;81;99198;-88
2022/02/16 04:28:56;;;;;;;17.10;9.97;;;;;;;4.85;90.89;99633.77;3507788;82;98693;-89
2022/02/16 04:33:57;;;;;;;17.10;9.10;;;;;;;4.86;90.58;99632.61;3552242;82;98682;-89
2022/02/16 04:38:58;;;;;;;17.27;9.43;;;;;;;4.87;90.33;99625.23;3521414;82;98839;-89
2022/02/16 04:43:59;;;;;;;16.97;9.73;;;;;;;4.87;89.96;99630.13;3488147;83;98876;-90
2022/02/16 04:49:00;;;;;;;15.43;9.07;;;;;;;4.87;89.91;99616.50;3507633;82;98988;-90
2022/02/16 04:54:01;;;;;;;18.03;10.40;;;;;;;4.86;89.72;99612.17;3470027;84;98778;-91
2022/02/16 04:59:02;;;;;;;18.26;8.68;;;;;;;4.87;89.41;99615.70;3531557;82;98825;-89
2022/02/16 05:04:03;;;;;;;16.77;8.03;;;;;;;4.88;89.18;99601.71;3533817;82;98659;-92
2022/02/16 05:09:10;;;;;;;15.40;7.70;;;;;;;4.90;89.11;99595.88;3533217;82;98870;-92
2022/02/16 05:14:10;;;;;;;;;;;;;;;4.89;89.17;99591.02;3532386;82;98752;-88
2022/02/16 05:19:13;;;;;;;16.43;8.13;;;;;;;4.88;89.25;99584.55;3537395;82;84722;-93
2022/02/16 05:24:14;;;;;;;14.55;7.78;;;;;;;4.87;89.12;99570.72;3544388;82;98732;-89
2022/02/16 05:29:15;;;;;;;15.47;8.30;;;;;;;4.88;89.31;99570.36;3484139;83;98831;-89
2022/02/16 05:34:19;;;;;;;17.37;8.63;;;;;;;4.91;88.86;99568.85;3482815;82;98576;-92
2022/02/16 05:39:20;;;;;;;15.15;7.85;;;;;;;4.96;88.95;99560.39;3523999;82;98621;-87
2022/02/16 05:44:20;;;;;;;14.50;7.33;;;;;;;4.97;88.83;99557.27;3547174;82;98757;-89
2022/02/16 05:49:21;;;;;;;15.90;7.87;;;;;;;5.00;88.69;99548.95;3528799;82;98687;-87
2022/02/16 05:54:23;;;;;;;14.37;7.60;;;;;;;5.02;88.68;99542.58;3521502;82;98871;-90
2022/02/16 05:59:24;;;;;;;16.40;8.50;;;;;;;5.04;88.58;99559.36;3541303;82;98199;-91
2022/02/16 06:04:25;;;;;;;14.03;7.90;;;;;;;5.05;88.28;99542.64;3550072;82;98441;-89
2022/02/16 06:09:27;;;;;;;17.62;8.50;;;;;;;5.07;88.01;99547.15;3532237;81;98576;-89
2022/02/16 06:14:28;;;;;;;15.87;8.07;;;;;;;5.09;88.13;99551.69;3531224;82;98701;-90
2022/02/16 06:19:28;;;;;;;15.93;8.33;;;;;;;5.11;87.87;99552.10;3531356;82;98345;-89
2022/02/16 06:24:29;;;;;;;17.40;9.03;;;;;;;5.13;87.69;99538.11;3536597;81;98756;-90
2022/02/16 06:29:30;;;;;;;17.13;7.87;;;;;;;5.15;87.50;99535.23;3530900;82;98642;-89
2022/02/16 06:34:31;;;;;;;13.53;6.43;;;;;;;5.16;87.54;99534.08;3542834;82;98741;-88
2022/02/16 06:39:32;;;;;;;19.73;7.95;;;;;;;5.17;87.35;99529.40;3535114;81;98781;-88
2022/02/16 06:44:33;;;;;;;14.10;7.07;;;;;;;5.18;87.09;99525.55;3534913;82;98805;-86
2022/02/16 06:49:35;;;;;;;15.70;6.97;;;;;;;5.21;86.67;99512.52;3537510;82;98797;-89
2022/02/16 06:54:36;;;;;;;18.63;7.43;;;;;;;5.22;86.70;99514.09;3540031;82;98727;-89
2022/02/16 06:59:36;;;;;;;13.83;6.87;;;;;;;5.25;86.53;99507.93;3532372;82;98401;-88
2022/02/16 07:04:37;;;;;;;13.27;6.27;;;;;;;5.28;86.19;99504.45;3534609;82;98363;-88
2022/02/16 07:09:38;;;;;;;13.27;6.20;;;;;;;5.31;86.16;99507.84;3507020;82;98751;-90
2022/02/16 07:14:39;;;;;;;14.93;6.63;;;;;;;5.34;85.60;99499.70;3539777;82;98877;-89
2022/02/16 07:19:40;;;;;;;15.47;7.20;;;;;;;5.37;85.91;99479.89;3533949;82;98769;-91
2022/02/16 07:24:41;;;;;;;15.53;7.93;;;;;;;5.40;85.85;99487.92;3541296;82;98830;-89
2022/02/16 07:29:42;;;;;;;17.10;7.53;;;;;;;5.41;85.79;99490.86;3528585;82;98724;-88
2022/02/16 07:34:43;;;;;;;19.70;8.87;;;;;;;5.40;85.72;99476.42;3537997;82;25708;-90
2022/02/16 07:39:44;;;;;;;14.10;7.50;;;;;;;5.42;85.66;99469.23;3531009;82;98740;-94
2022/02/16 07:44:45;;;;;;;18.20;7.83;;;;;;;5.43;85.14;99463.98;3539198;82;97658;-91
2022/02/16 07:49:46;;;;;;;17.10;7.67;;;;;;;5.43;85.39;99447.62;3511896;82;98666;-92
2022/02/16 07:54:47;;;;;;;17.30;8.50;;;;;;;5.42;85.28;99448.78;3539691;82;98775;-91
2022/02/16 07:59:48;;;;;;;18.10;8.73;;;;;;;5.44;85.40;99444.53;3535832;82;98806;-91
2022/02/16 08:04:48;;;;;;;15.73;7.33;;;;;;;5.46;85.40;99451.77;3543906;82;33134;-89
2022/02/16 08:09:49;;;;;;;15.90;8.30;;;;;;;5.50;84.96;99443.63;3534939;82;98724;-94
2022/02/16 08:14:50;;;;;;;14.43;7.43;;;;;;;5.54;85.05;99440.38;3538305;81;98504;-92
2022/02/16 08:19:54;;;;;;;18.60;7.90;;;;;;;5.59;84.74;99426.42;3532839;82;98752;-93
2022/02/16 08:24:55;;;;;;;13.93;7.17;;;;;;;5.70;84.60;99431.46;3541843;82;98734;-93
2022/02/16 08:29:56;;;;;;;12.50;6.27;;;;;;;5.81;84.88;99410.59;3536341;82;98843;-90
2022/02/16 08:35:00;;;;;;;15.23;7.37;;;;;;;5.95;83.93;99396.53;3540380;82;33003;-88
2022/02/16 08:40:05;;;;;;;16.93;7.47;;;;;;;6.05;82.89;99391.79;3527579;82;98669;-89
2022/02/16 08:45:10;;;;;;;14.13;6.65;;;;;;;6.10;83.03;99378.38;3517827;82;98713;-93
2022/02/16 08:50:13;;;;;;;18.27;7.92;;;;;;;6.15;82.49;99361.09;3535636;82;98462;-90
2022/02/16 08:55:14;;;;;;;18.40;7.37;;;;;;;6.21;82.45;99346.53;3501404;82;98884;-90
2022/02/16 09:00:15;;;;;;;15.07;6.70;;;;;;;6.30;82.54;99338.80;3502107;82;98796;-90
2022/02/16 09:05:16;;;;;;;18.57;7.63;;;;;;;6.33;81.78;99325.17;3529659;82;33037;-88
2022/02/16 09:10:17;;;;;;;13.70;7.60;;;;;;;6.33;81.79;99310.15;3524840;82;98742;-89
2022/02/16 09:15:21;;;;;;;16.23;7.83;;;;;;;6.40;81.60;99303.41;3532285;82;98806;-91
2022/02/16 09:20:21;;;;;;;13.77;6.67;;;;;;;6.50;82.24;99294.50;3527967;82;98953;-88
2022/02/16 09:25:25;;;;;;;18.77;7.70;;;;;;;6.57;81.79;99277.38;3525974;82;98913;-94
2022/02/16 09:30:26;;;;;;;17.12;6.72;;;;;;;6.64;81.20;99265.12;3519812;82;98969;-93
2022/02/16 09:35:28;;;;;;;14.73;7.07;;;;;;;6.67;80.90;99268.48;3521698;82;33668;-89
2022/02/16 09:40:30;;;;;;;11.85;6.70;;;;;;;6.70;81.58;99251.34;3517591;81;99064;-90
2022/02/16 09:45:32;;;;;;;17.87;8.78;;;;;;;6.80;81.04;99247.88;3506612;82;98882;-88
2022/02/16 09:50:38;;;;;;;16.57;7.70;;;;;;;6.86;81.24;99243.61;3526883;82;98606;-90
2022/02/16 09:55:36;;;;;;;18.15;8.28;;;;;;;6.92;80.88;99240.16;3530273;82;98816;-91
2022/02/16 10:00:38;;;;;;;12.27;6.20;;;;;;;6.99;80.91;99238.82;3523316;82;98531;-90
2022/02/16 10:05:41;;;;;;;19.55;8.15;;;;;;;7.07;80.81;99232.24;3509384;82;26105;-92
2022/02/16 10:10:46;;;;;;;16.20;7.58;;;;;;;7.13;80.57;99215.66;3527314;82;98289;-90
2022/02/16 10:15:49;;;;;;;12.67;5.90;;;;;;;7.23;80.17;99218.24;3505739;82;98784;-90
2022/02/16 10:20:50;;;;;;;12.93;6.08;;;;;;;7.32;80.28;99198.16;3531609;82;98933;-91
2022/02/16 10:25:51;;;;;;;13.83;6.10;;;;;;;7.40;80.14;99179.22;3524194;81;99086;-90
2022/02/16 10:31:04;;;;;;;12.27;5.57;;;;;;;7.49;80.37;99170.87;3531927;82;98832;-89
2022/02/16 10:36:19;;;;;;;14.73;5.97;;;;;;;7.54;79.61;99154.07;3530529;81;99260;-90
2022/02/16 10:41:24;;;;;;;13.93;6.20;;;;;;;7.57;79.89;99141.53;3531350;82;98437;-85
2022/02/16 10:46:28;;;;;;;11.93;5.78;;;;;;;7.74;80.91;99118.30;3532899;82;98701;-92
2022/02/16 10:51:33;;;;;;;14.47;4.90;;;;;;;8.10;79.35;99113.62;3515190;82;98447;-88
2022/02/16 10:56:35;;;;;;;10.40;4.80;;;;;;;8.32;79.73;99084.48;3523382;81;98706;-90
2022/02/16 11:01:40;;;;;;;10.63;4.47;;;;;;;8.53;79.26;99076.22;3498861;81;98909;-85
2022/02/16 11:06:48;;;;;;;11.78;4.85;;;;;;;8.57;77.83;99073.46;3499354;82;98951;-88
2022/02/16 11:11:53;;;;;;;9.38;4.37;;;;;;;8.56;76.99;99056.83;3530903;82;98877;-91
2022/02/16 11:17:00;;;;;;;10.93;3.62;;;;;;;8.56;77.34;99049.97;3532468;82;98393;-89
2022/02/16 11:22:14;;;;;;;9.75;4.37;;;;;;;8.58;77.75;99029.78;3527211;82;98342;-90
2022/02/16 11:27:32;;;;;;;9.98;4.15;;;;;;;8.60;77.54;99021.34;3529493;82;98471;-89
2022/02/16 11:32:42;;;;;;;9.58;3.90;;;;;;;8.68;78.10;99004.28;3530204;82;98703;-91
2022/02/16 11:38:06;;;;;;;7.67;2.95;;;;;;;8.74;77.54;98998.56;3521583;82;98631;-90
2022/02/16 11:43:10;;;;;;;10.35;3.17;;;;;;;8.76;76.97;98980.53;3538952;82;98390;-90
2022/02/16 11:48:18;;;;;;;8.55;3.22;;;;;;;8.74;76.95;98977.42;3529279;82;98725;-89
2022/02/16 11:53:24;;;;;;;7.42;3.22;;;;;;;8.77;76.61;98960.15;3521139;81;26086;-87
2022/02/16 11:58:28;;;;;;;6.92;3.40;;;;;;;8.76;76.59;98942.14;3522605;82;98494;-90
2022/02/16 12:03:37;;;;;;;8.75;3.30;;;;;;;8.78;76.90;98923.91;3529825;81;98609;-88
2022/02/16 12:08:54;;;;;;;8.78;3.08;;;;;;;8.79;76.93;98919.98;3519627;82;98513;-86
2022/02/16 12:14:16;;;;;;;10.18;3.45;;;;;;;8.77;76.69;98899.80;3531001;82;98775;-87
2022/02/16 12:19:23;;;;;;;9.05;3.10;;;;;;;8.82;75.97;98896.64;3496968;82;98615;-89
2022/02/16 12:24:28;;;;;;;9.35;3.52;;;;;;;8.86;76.16;98874.67;3527884;82;98357;-91
2022/02/16 12:29:39;;;;;;;9.35;3.12;;;;;;;8.88;76.41;98862.11;3532940;82;98492;-90
2022/02/16 12:34:37;;;;;;;8.70;3.47;;;;;;;8.89;75.88;98843.70;3525787;82;98458;-89
2022/02/16 12:39:37;;;;;;;9.63;3.53;;;;;;;8.89;76.18;98829.98;3523789;82;98565;-88
2022/02/16 12:44:45;;;;;;;6.70;2.43;;;;;;;8.91;75.92;98813.31;3533115;82;98699;-90
2022/02/16 12:49:43;;;;;;;8.85;2.75;;;;;;;8.92;75.77;98795.66;3518368;82;98401;-89
2022/02/16 12:54:45;;;;;;;9.83;2.90;;;;;;;8.90;75.89;98787.04;3532288;82;98692;-92
2022/02/16 13:05:08;;;;;;;18.25;3.22;;;;;;;8.86;75.84;98758.09;3504243;82;98130;-88
2022/02/16 13:10:10;;;;;;;6.43;3.07;;;;;;;8.85;75.96;98753.21;3524000;80;98783;-91
2022/02/16 13:15:16;;;;;;;6.65;2.85;;;;;;;8.84;76.32;98741.27;3526038;82;98665;-89
2022/02/16 13:20:26;;;;;;;7.30;3.45;;;;;;;8.81;76.04;98734.63;3523356;82;98650;-88
2022/02/16 13:25:37;;;;;;;8.15;3.20;;;;;;;8.83;76.33;98712.29;3533588;81;98565;-90
2022/02/16 13:30:41;;;;;;;8.93;3.80;;;;;;;8.79;76.96;98693.09;3523778;82;98673;-88
2022/02/16 13:35:48;;;;;;;11.18;4.15;;;;;;;8.81;77.51;98703.09;3537075;82;26007;-90
2022/02/16 13:41:05;;;;;;;7.40;2.90;;;;;;;8.80;77.51;98670.58;3522622;82;98357;-93
2022/02/16 13:46:07;;;;;;;9.88;3.40;;;;;;;8.67;77.49;98651.11;3536124;82;98797;-92
2022/02/16 13:51:14;;;;;;;8.87;3.50;;;;;;;8.74;78.15;98643.41;3531644;82;98325;-89
2022/02/16 13:56:21;;;;;;;10.55;4.22;;;;;;;8.73;77.88;98628.14;3529527;82;98657;-88
2022/02/16 14:01:23;;;;;;;5.83;2.80;;;;;;;8.70;77.55;98633.85;3487513;82;98363;-90
2022/02/16 14:06:24;;;;;;;8.15;4.08;;;;;;;8.68;77.22;98615.64;3527902;82;98649;-93
2022/02/16 14:11:28;;;;;;;8.07;3.27;;;;;;;8.69;76.96;98603.50;3520737;81;98246;-93
2022/02/16 14:16:33;;;;;;;9.68;2.92;;;;;;;8.71;77.12;98604.45;3539922;81;98408;-91
2022/02/16 14:21:35;;;;;;;7.90;3.00;;;;;;;8.69;77.36;98583.52;3531460;82;98474;-89
2022/02/16 14:26:45;;;;;;;8.75;3.00;;;;;;;8.66;77.21;98548.67;3535531;82;98571;-88
2022/02/16 14:31:46;;;;;;;7.65;3.00;;;;;;;8.65;77.43;98512.85;3532353;81;98600;-92
2022/02/16 14:36:49;;;;;;;9.13;3.47;;;;;;;8.64;78.26;98505.82;3526005;82;98921;-93
2022/02/16 14:41:50;;;;;;;8.00;2.95;;;;;;;8.59;79.33;98526.84;3536931;82;25704;-90
2022/02/16 14:46:51;;;;;;;7.60;2.70;;;;;;;8.50;80.40;98512.25;3532551;82;98550;-89
2022/02/16 14:51:54;;;;;;;8.73;3.60;;;;;;;8.42;80.85;98538.20;3528798;82;97450;-89
2022/02/16 14:56:55;;;;;;;10.17;4.80;;;;;;;8.40;81.47;98550.75;3525725;82;103412;-88
2022/02/16 15:02:01;;;;;;;7.67;3.57;;;;;;;8.36;81.67;98542.57;3534601;82;98939;-90
2022/02/16 15:07:03;;;;;;;9.37;3.70;;;;;;;8.33;82.81;98547.48;3532847;81;98360;-86
2022/02/16 15:12:04;;;;;;;8.78;3.50;;;;;;;8.28;83.21;98537.57;3531354;82;25733;-87
2022/02/16 15:17:06;;;;;;;12.88;4.33;;;;;;;8.24;84.55;98537.58;3528395;82;98463;-89
2022/02/16 15:22:09;;;;;;;10.85;4.15;;;;;;;8.18;85.90;98530.95;3534123;82;98790;-89
2022/02/16 15:27:10;;;;;;;8.48;2.92;;;;;;;8.14;85.97;98513.80;3524076;82;100395;-88
2022/02/16 15:32:11;;;;;;;9.63;3.43;;;;;;;8.14;86.69;98513.01;3532383;82;98772;-90
2022/02/16 15:37:12;;;;;;;11.10;5.00;;;;;;;8.10;88.41;98521.84;3532486;82;98586;-92
2022/02/16 15:42:15;;;;;;;13.67;5.60;;;;;;;8.03;88.82;98517.81;3511399;82;98823;-88
2022/02/16 15:47:16;;;;;;;11.97;5.20;;;;;;;7.93;91.26;98522.21;3539782;82;98595;-89
2022/02/16 15:52:17;;;;;;;12.23;4.00;;;;;;;7.84;91.65;98519.73;3540282;82;98210;-89
2022/02/16 15:57:19;;;;;;;12.17;4.73;;;;;;;7.76;93.67;98496.34;3537591;80;98938;-90
2022/02/16 16:02:20;;;;;;;11.70;4.30;;;;;;;7.67;94.53;98492.70;3538925;82;98874;-91
2022/02/16 16:07:21;;;;;;;16.70;7.77;;;;;;;7.57;97.95;98516.05;3540519;82;98837;-92
2022/02/16 16:12:22;;;;;;;9.37;4.20;;;;;;;7.46;97.59;98482.50;3545218;82;98814;-90
2022/02/16 16:17:25;;;;;;;11.53;5.00;;;;;;;7.34;100.00;98476.15;3532514;82;98189;-90
2022/02/16 16:22:28;;;;;;;10.23;4.60;;;;;;;7.30;100.00;98467.21;3537274;82;98703;-91
2022/02/16 16:27:28;;;;;;;14.47;6.15;;;;;;;7.26;100.00;98454.91;3533686;80;98832;-92
2022/02/16 16:32:29;;;;;;;11.97;6.50;;;;;;;7.23;100.00;98457.09;3538000;82;99024;-88
2022/02/16 16:37:32;;;;;;;13.77;6.30;;;;;;;7.19;100.00;98441.89;3524858;82;99236;-92
2022/02/16 16:42:35;;;;;;;13.98;6.15;;;;;;;7.18;100.00;98412.96;3534138;82;99111;-90
2022/02/16 16:47:39;;;;;;;15.32;6.62;;;;;;;7.15;100.00;98422.75;3521204;82;98317;-91
2022/02/16 16:52:40;;;;;;;12.23;5.12;;;;;;;7.17;100.00;98433.30;3537984;82;98836;-90
2022/02/16 16:57:41;;;;;;;13.87;6.43;;;;;;;7.19;100.00;98418.03;3530668;82;98804;-91
2022/02/16 17:02:41;;;;;;;14.40;6.53;;;;;;;7.21;100.00;98414.30;3551802;81;99011;-90
2022/02/16 17:07:44;;;;;;;11.03;5.10;;;;;;;7.27;100.00;98431.86;3536407;82;99181;-87
2022/02/16 17:12:45;;;;;;;9.90;4.90;;;;;;;7.32;100.00;98419.70;3535912;82;99142;-88
2022/02/16 17:17:46;;;;;;;11.90;4.90;;;;;;;7.40;100.00;98408.87;3539267;82;98589;-87
2022/02/16 17:22:48;;;;;;;11.80;5.17;;;;;;;7.48;100.00;98404.91;3539593;82;98964;-86
2022/02/16 17:27:49;;;;;;;10.63;4.55;;;;;;;7.57;100.00;98424.34;3538408;82;99003;-87
2022/02/16 17:32:52;;;;;;;9.13;3.97;;;;;;;7.64;100.00;98426.44;3534455;82;99065;-90
2022/02/16 17:37:53;;;;;;;9.67;4.23;;;;;;;7.71;100.00;98407.22;3528755;82;98999;-88
2022/02/16 17:42:54;;;;;;;10.43;4.10;;;;;;;7.79;100.00;98414.78;3542443;80;98897;-88
2022/02/16 17:47:55;;;;;;;8.53;4.70;;;;;;;7.83;100.00;98386.75;3522152;82;98810;-87
2022/02/16 17:52:56;;;;;;;10.60;4.83;;;;;;;7.85;100.00;98376.94;3530290;82;97517;-86
2022/02/16 17:57:59;;;;;;;12.47;4.47;;;;;;;7.85;100.00;98352.91;3505939;82;99080;-88
2022/02/16 18:03:03;;;;;;;10.47;4.33;;;;;;;7.88;100.00;98353.44;3532258;81;99157;-89
2022/02/16 18:08:04;;;;;;;10.47;3.47;;;;;;;7.91;100.00;98358.12;3543514;82;99112;-87
2022/02/16 18:13:05;;;;;;;7.70;3.60;;;;;;;7.95;100.00;98349.24;3545270;82;98908;-88
2022/02/16 18:18:06;;;;;;;8.98;3.70;;;;;;;7.99;100.00;98348.03;3532478;82;98686;-89
2022/02/16 18:23:07;;;;;;;8.30;3.30;;;;;;;8.05;100.00;98351.08;3550832;82;33046;-87
2022/02/16 18:28:08;;;;;;;7.97;3.37;;;;;;;8.10;100.00;98350.05;3545180;82;98650;-86
2022/02/16 18:33:09;;;;;;;9.73;4.23;;;;;;;8.19;100.00;98335.84;3533651;82;99000;-88
2022/02/16 18:38:10;;;;;;;7.10;3.43;;;;;;;8.24;100.00;98315.64;3538804;82;99793;-91
2022/02/16 18:43:13;;;;;;;9.13;4.03;;;;;;;8.27;100.00;98307.19;3536428;82;98826;-87
2022/02/16 18:48:14;;;;;;;8.27;3.40;;;;;;;8.30;100.00;98300.89;3536518;82;98705;-87
2022/02/16 18:53:16;;;;;;;8.57;3.77;;;;;;;8.31;100.00;98291.48;3519930;82;33111;-88
2022/02/16 18:58:17;;;;;;;7.77;3.63;;;;;;;8.34;99.95;98294.16;3530980;82;98908;-89
2022/02/16 19:03:20;;;;;;;10.07;4.23;;;;;;;8.37;99.71;98293.94;3534382;82;98328;-88
2022/02/16 19:08:21;;;;;;;9.20;3.83;;;;;;;8.40;99.53;98278.81;3533710;82;98861;-90
2022/02/16 19:13:22;;;;;;;10.00;4.90;;;;;;;8.43;99.22;98264.28;3537567;82;98685;-88
2022/02/16 19:18:24;;;;;;;11.83;5.70;;;;;;;8.45;98.94;98239.22;3538405;82;98521;-90
2022/02/16 19:23:25;;;;;;;10.47;4.40;;;;;;;8.44;98.79;98226.67;3532273;82;33673;-87
2022/02/16 19:28:32;;;;;;;10.57;4.13;;;;;;;8.45;98.62;98199.47;3528665;81;98716;-88
2022/02/16 19:33:32;;;;;;;14.13;5.50;;;;;;;8.43;98.42;98186.17;3537070;82;98663;-88
2022/02/16 19:38:33;;;;;;;10.58;4.62;;;;;;;8.42;98.31;98172.88;3531661;82;99011;-90
2022/02/16 19:43:34;;;;;;;9.73;4.60;;;;;;;8.40;98.29;98171.16;3543137;82;99360;-89
2022/02/16 19:48:37;;;;;;;9.93;3.87;;;;;;;8.41;98.32;98164.48;3525653;82;98788;-90
2022/02/16 19:53:41;;;;;;;7.92;3.62;;;;;;;8.42;98.35;98167.41;3539519;82;26044;-88
2022/02/16 19:58:41;;;;;;;6.95;3.25;;;;;;;8.44;98.29;98169.12;3532959;82;98673;-88
2022/02/16 20:03:43;;;;;;;8.30;3.53;;;;;;;8.45;98.30;98168.71;3546084;82;98507;-88
2022/02/16 20:08:46;;;;;;;8.95;3.60;;;;;;;8.48;98.19;98198.04;3529988;82;98795;-88
2022/02/16 20:13:47;;;;;;;6.45;3.05;;;;;;;8.55;97.96;98186.16;3536664;82;98883;-86
2022/02/16 20:18:48;;;;;;;6.57;3.20;;;;;;;8.59;97.88;98193.16;3503479;82;98334;-88
2022/02/16 20:23:49;;;;;;;8.30;3.93;;;;;;;8.67;97.63;98183.60;3541418;82;33080;-90
2022/02/16 20:28:50;;;;;;;8.13;3.20;;;;;;;8.75;97.48;98189.74;3548789;82;98659;-90
2022/02/16 20:33:53;;;;;;;7.63;3.43;;;;;;;8.80;97.13;98164.58;3538975;82;98568;-91
2022/02/16 20:38:56;;;;;;;8.23;3.43;;;;;;;8.88;96.51;98170.89;3534584;82;98792;-86
2022/02/16 20:43:59;;;;;;;10.65;3.87;;;;;;;8.94;96.37;98165.09;3539238;82;98745;-89
2022/02/16 20:49:01;;;;;;;9.15;3.52;;;;;;;8.94;96.17;98169.20;3531686;82;98904;-90
2022/02/16 20:54:03;;;;;;;6.97;3.23;;;;;;;8.98;96.06;98154.84;3533533;82;33143;-88
2022/02/16 20:59:10;;;;;;;8.15;3.67;;;;;;;9.04;95.79;98155.11;3530539;82;98613;-87
2022/02/16 21:04:09;;;;;;;9.33;3.85;;;;;;;9.06;95.71;98149.99;3542761;82;98615;-89
2022/02/16 21:09:10;;;;;;;7.80;3.70;;;;;;;9.11;95.57;98126.94;3535534;82;98931;-91
2022/02/16 21:14:11;;;;;;;8.47;3.70;;;;;;;9.13;95.46;98121.83;3537610;80;98814;-91
2022/02/16 21:19:13;;;;;;;7.55;3.30;;;;;;;9.18;95.37;98128.78;3535225;82;98663;-94
2022/02/16 21:24:14;;;;;;;7.30;3.60;;;;;;;9.24;95.24;98110.62;3549233;82;98905;-90
2022/02/16 21:29:16;;;;;;;7.83;3.30;;;;;;;9.26;95.11;98081.55;3534709;82;98019;-91
2022/02/16 21:34:17;;;;;;;8.38;4.05;;;;;;;9.29;95.07;98062.09;3536796;82;98412;-90
2022/02/16 21:39:20;;;;;;;5.73;2.90;;;;;;;9.31;94.95;98048.70;3532635;82;99204;-90
2022/02/16 21:44:21;;;;;;;5.67;2.80;;;;;;;9.35;94.57;98040.59;3516004;82;98854;-88
2022/02/16 21:49:22;;;;;;;9.23;3.13;;;;;;;9.39;94.35;98018.55;3532357;82;98910;-90
2022/02/16 21:54:22;;;;;;;7.30;3.17;;;;;;;9.42;94.43;98003.37;3537965;82;98659;-87
2022/02/16 21:59:23;;;;;;;7.30;3.53;;;;;;;9.45;94.25;97968.22;3533524;82;98617;-90
2022/02/16 22:04:24;;;;;;;8.57;3.73;;;;;;;9.46;94.23;97938.19;3540691;82;98698;-90
2022/02/16 22:09:25;;;;;;;8.20;3.50;;;;;;;9.48;94.07;97917.17;3534906;81;98752;-88
2022/02/16 22:14:28;;;;;;;7.00;3.63;;;;;;;9.48;94.11;97906.20;3544795;82;98949;-90
2022/02/16 22:19:29;;;;;;;8.53;3.70;;;;;;;9.49;94.08;97883.78;3535258;82;98893;-87
2022/02/16 22:24:29;;;;;;;8.03;3.17;;;;;;;9.53;93.93;97879.56;3539467;81;98905;-88
2022/02/16 22:29:32;;;;;;;7.58;3.15;;;;;;;9.57;93.70;97858.30;3539887;82;98619;-92
2022/02/16 22:34:33;;;;;;;8.13;3.10;;;;;;;9.61;93.45;97858.98;3538517;82;98584;-88
2022/02/16 22:39:35;;;;;;;8.57;2.63;;;;;;;9.70;93.35;97845.41;3535024;82;98679;-86
2022/02/16 22:44:36;;;;;;;6.45;2.62;;;;;;;9.74;93.18;97833.12;3543245;82;98863;-88
2022/02/16 22:49:38;;;;;;;7.13;3.20;;;;;;;9.79;93.05;97801.60;3528519;82;98542;-87
2022/02/16 22:54:38;;;;;;;6.20;2.90;;;;;;;9.83;92.62;97768.73;3538051;82;98879;-87
2022/02/16 22:59:39;;;;;;;5.70;2.53;;;;;;;9.89;92.44;97731.27;3538247;82;98801;-87
2022/02/16 23:04:40;;;;;;;6.10;2.90;;;;;;;9.90;92.56;97704.56;3540443;82;98791;-91
2022/02/16 23:15:02;;;;;;;6.67;2.60;;;;;;;9.87;93.15;97685.60;3537583;82;98804;-91
2022/02/16 23:20:04;;;;;;;5.35;2.90;;;;;;;9.80;94.93;97666.59;3535542;82;99164;-89
2022/02/16 23:25:06;;;;;;;5.25;2.50;;;;;;;9.68;96.65;97652.84;3537152;82;98747;-90
2022/02/16 23:30:08;;;;;;;6.25;2.65;;;;;;;9.53;98.87;97628.38;3534808;82;98719;-88
2022/02/16 23:35:09;;;;;;;7.30;2.65;;;;;;;9.44;99.11;97588.48;3544243;82;25670;-90
2022/02/16 23:40:11;;;;;;;4.30;2.00;;;;;;;9.39;100.00;97556.84;3512933;82;98740;-92
2022/02/16 23:45:13;;;;;;;4.95;2.47;;;;;;;9.42;100.00;97529.13;3554629;82;99121;-88
2022/02/16 23:50:15;;;;;;;4.08;2.00;;;;;;;9.44;100.00;97517.87;3556328;82;98701;-87
2022/02/16 23:55:16;;;;;;;4.30;2.12;;;;;;;9.42;100.00;97488.73;3541339;82;99085;-90
